Time;durP1;ratioP1;P1;durP2;ratioP2;P2;SDS_P1;SDS_P2;PMS_P1;PMS_P2;Temp;Humidity;BMP_temperature;BMP_pressure;BME280_temperature;BME280_humidity;BME280_pressure;Samples;Min_cycle;Max_cycle;Signal;HPM_P1;HPM_P2
2022/01/22 00:00:36;;;;;;;12.40;5.47;;;;;;;;;;5037836;28;20033;-80
2022/01/22 00:03:02;;;;;;;17.15;4.70;;;;;;;;;;5049451;28;20106;-79
2022/01/22 00:05:28;;;;;;;6.85;4.20;;;;;;;;;;5051029;28;20234;-79
2022/01/22 00:07:54;;;;;;;9.60;4.30;;;;;;;;;;5047018;28;20477;-79
2022/01/22 00:10:23;;;;;;;10.77;5.45;;;;;;;;;;5052043;28;21759;-79
2022/01/22 00:15:16;;;;;;;10.82;4.38;;;;;;;;;;5046508;28;20041;-80
2022/01/22 00:17:42;;;;;;;10.23;5.18;;;;;;;;;;5052415;28;20030;-80
2022/01/22 00:20:09;;;;;;;10.52;5.43;;;;;;;;;;5051970;28;20068;-80
2022/01/22 00:22:36;;;;;;;7.15;4.43;;;;;;;;;;5048885;28;21135;-80
2022/01/22 00:25:07;;;;;;;11.57;5.18;;;;;;;;;;5051328;28;20045;-79
2022/01/22 00:27:33;;;;;;;9.38;4.78;;;;;;;;;;5052303;28;20036;-80
2022/01/22 00:29:59;;;;;;;10.98;4.82;;;;;;;;;;5040609;28;20040;-79
2022/01/22 00:32:25;;;;;;;11.05;4.82;;;;;;;;;;5044318;28;20041;-79
2022/01/22 00:34:51;;;;;;;13.23;4.13;;;;;;;;;;5050347;28;20428;-80
2022/01/22 00:37:17;;;;;;;8.60;4.28;;;;;;;;;;5048570;28;20096;-80
2022/01/22 00:39:43;;;;;;;10.57;4.35;;;;;;;;;;5053976;28;20047;-80
2022/01/22 00:42:14;;;;;;;12.88;5.13;;;;;;;;;;5049743;28;20800;-80
2022/01/22 00:44:41;;;;;;;9.18;4.50;;;;;;;;;;5048657;28;20151;-80
2022/01/22 00:47:07;;;;;;;10.02;5.03;;;;;;;;;;5048146;28;20021;-79
2022/01/22 00:49:34;;;;;;;10.43;4.82;;;2.20;99.90;;;;;;5059483;28;20134;-80
2022/01/22 00:52:00;;;;;;;10.35;5.00;;;;;;;;;;5055483;28;20025;-79
2022/01/22 00:54:26;;;;;;;15.55;5.05;;;;;;;;;;5056262;28;20032;-80
2022/01/22 00:56:52;;;;;;;13.73;5.63;;;;;;;;;;5057818;28;20804;-79
2022/01/22 00:59:18;;;;;;;13.55;6.38;;;;;;;;;;5053230;28;20730;-80
2022/01/22 01:01:44;;;;;;;9.60;5.05;;;;;;;;;;5055564;28;20028;-80
2022/01/22 01:04:11;;;;;;;10.25;5.10;;;;;;;;;;5050610;28;20401;-80
2022/01/22 01:06:38;;;;;;;14.20;6.75;;;;;;;;;;5059063;28;20032;-80
2022/01/22 01:09:06;;;;;;;9.50;5.10;;;;;;;;;;5056365;28;20044;-80
2022/01/22 01:11:34;;;;;;;9.60;4.97;;;;;;;;;;5056650;28;20085;-81
2022/01/22 01:14:03;;;;;;;10.73;5.45;;;;;;;;;;5060581;28;20055;-80
2022/01/22 01:16:55;;;;;;;11.63;5.00;;;;;;;;;;5056488;28;20036;-80
2022/01/22 01:33:17;;;;;;;10.77;5.53;;;;;;;;;;5060189;28;20071;-81
2022/01/22 01:35:43;;;;;;;12.02;5.35;;;;;;;;;;5060419;28;20136;-80
2022/01/22 01:38:10;;;;;;;10.45;5.65;;;;;;;;;;5054410;28;20037;-80
2022/01/22 01:40:40;;;;;;;11.90;5.65;;;;;;;;;;5057615;28;20028;-80
2022/01/22 01:43:18;;;;;;;9.50;4.45;;;;;;;;;;5056094;28;20033;-80
2022/01/22 01:45:44;;;;;;;9.23;4.47;;;;;;;;;;5054872;28;20033;-81
2022/01/22 01:48:17;;;;;;;15.10;5.68;;;;;;;;;;5055866;28;20048;-79
2022/01/22 01:50:44;;;;;;;8.68;6.28;;;;;;;;;;5057775;28;20037;-79
2022/01/22 01:53:18;;;;;;;12.13;5.50;;;;;;;;;;5052074;28;20035;-79
2022/01/22 01:56:03;;;;;;;11.27;5.22;;;;;;;;;;5057934;28;20464;-81
2022/01/22 01:58:31;;;;;;;15.63;6.20;;;;;;;;;;5051946;28;20135;-79
2022/01/22 02:01:00;;;;;;;13.45;5.75;;;;;;;;;;5051282;28;20055;-80
2022/01/22 02:03:26;;;;;;;19.08;5.88;;;;;;;;;;5055937;28;20029;-79
2022/01/22 02:05:52;;;;;;;9.10;5.75;;;;;;;;;;5055633;28;20053;-80
2022/01/22 02:08:19;;;;;;;13.88;5.40;;;;;;;;;;5058155;28;20603;-79
2022/01/22 02:10:54;;;;;;;11.45;5.07;;;;;;;;;;5053931;28;20025;-80
2022/01/22 02:24:49;;;;;;;14.93;5.50;;;;;;;;;;5015279;28;20171;-80
2022/01/22 02:27:16;;;;;;;14.40;5.00;;;;;;;;;;5058019;28;20510;-80
2022/01/22 02:29:42;;;;;;;11.75;4.82;;;;;;;;;;5053320;28;20377;-80
2022/01/22 02:32:47;;;;;;;11.65;5.22;;;;;;;;;;5058214;28;20021;-79
2022/01/22 02:35:11;;;;;;;11.00;4.70;;;;;;;;;;5057324;28;20078;-79
2022/01/22 02:37:42;;;;;;;12.20;5.22;;;;;;;;;;5055714;28;20538;-80
2022/01/22 02:40:13;;;;;;;8.82;4.28;;;;;;;;;;5055389;28;20113;-79
2022/01/22 02:42:39;;;;;;;8.07;3.70;;;;;;;;;;5058876;28;20058;-80
2022/01/22 02:45:09;;;;;;;7.97;3.88;;;;;;;;;;5052671;28;20036;-79
2022/01/22 02:47:35;;;;;;;13.00;5.28;;;;;;;;;;5057394;28;20031;-80
2022/01/22 02:50:01;;;;;;;7.50;4.53;;;;;;;;;;5056616;28;20033;-80
2022/01/22 02:52:27;;;;;;;8.55;4.82;;;;;;;;;;5058947;28;20094;-80
2022/01/22 02:54:55;;;;;;;9.32;4.15;;;;;;;;;;5059763;28;20032;-80
2022/01/22 02:57:21;;;;;;;6.75;3.85;;;;;;;;;;5055607;28;20125;-79
2022/01/22 02:59:47;;;;;;;7.43;4.40;;;;;;;;;;5059469;28;20026;-80
2022/01/22 03:02:13;;;;;;;11.07;4.43;;;;;;;;;;5057952;28;20160;-79
2022/01/22 03:04:40;;;;;;;7.60;4.65;;;;;;;;;;5058337;28;20036;-80
2022/01/22 03:07:06;;;;;;;13.43;4.28;;;;;;;;;;5055367;28;20085;-81
2022/01/22 03:09:39;;;;;;;10.90;4.22;;;;;;;;;;5055338;28;20050;-79
2022/01/22 03:27:47;;;;;;;8.15;4.85;;;;;;;;;;5045207;28;20075;-79
2022/01/22 03:30:13;;;;;;;15.30;5.57;;;;;;;;;;5040246;28;20408;-79
2022/01/22 03:32:43;;;;;;;19.52;6.57;;;;;;;;;;5045530;28;20077;-79
2022/01/22 03:37:45;;;;;;;10.20;4.95;;;;;;;;;;5045569;28;20471;-80
2022/01/22 03:40:12;;;;;;;13.32;5.65;;;;;;;;;;5052899;28;20036;-80
2022/01/22 03:42:39;;;;;;;13.52;5.25;;;;;;;;;;5052545;28;20044;-80
2022/01/22 03:45:07;;;;;;;15.18;7.18;;;;;;;;;;5045251;28;20045;-80
2022/01/22 03:47:33;;;;;;;14.63;5.75;;;;;;;;;;5040817;28;20039;-80
2022/01/22 03:49:59;;;;;;;12.27;6.38;;;;;;;;;;5054194;28;20036;-80
2022/01/22 03:52:25;;;;;;;15.13;5.82;;;;;;;;;;5048667;28;20033;-80
2022/01/22 03:54:51;;;;;;;13.82;4.80;;;;;;;;;;5051142;28;20033;-80
2022/01/22 03:57:17;;;;;;;10.80;5.75;;;;;;;;;;5047068;28;20051;-80
2022/01/22 03:59:46;;;;;;;13.15;4.70;;;;;;;;;;5047257;28;20028;-80
2022/01/22 04:05:01;;;;;;;10.25;5.55;;;;;;;;;;5051969;28;20052;-80
2022/01/22 04:10:04;;;;;;;9.10;4.55;;;;;;;;;;5052069;28;20499;-80
2022/01/22 04:15:19;;;;;;;14.77;4.70;;;;;;;;;;5047628;28;20447;-80
2022/01/22 04:26:41;;;;;;;10.15;5.03;;;;;;;;;;5052664;28;20102;-80
2022/01/22 04:28:50;;;;;;;11.63;6.65;;;;;;;;;;5047345;28;20059;-80
2022/01/22 04:31:16;;;;;;;10.88;5.93;;;;;;;;;;5051477;28;20545;-79
2022/01/22 04:33:43;;;;;;;8.70;4.75;;;;;;;;;;5051377;28;20024;-80
2022/01/22 04:36:09;;;;;;;11.82;4.45;;;;;;;;;;5052015;28;20028;-79
2022/01/22 04:38:35;;;;;;;8.20;4.10;;;;;;;;;;5050633;28;20481;-80
2022/01/22 04:41:01;;;;;;;7.40;4.25;;;;;;;;;;5047197;28;20036;-79
2022/01/22 04:43:30;;;;;;;8.23;4.10;;;;;;;;;;5028359;28;20043;-80
2022/01/22 04:46:12;;;;;;;11.00;5.47;;;;;;;;;;5042817;28;20120;-80
2022/01/22 04:48:48;;;;;;;9.77;5.45;;;;;;;;;;5054893;28;20075;-81
2022/01/22 04:56:44;;;;;;;11.18;4.18;;;;;;;;;;5053226;28;20073;-80
2022/01/22 04:59:10;;;;;;;9.38;4.82;;;;;;;;;;5047806;28;20483;-79
2022/01/22 05:01:36;;;;;;;12.15;5.40;;;;;;;;;;5050618;28;20520;-79
2022/01/22 05:04:01;;;;;;;13.38;4.65;;;;;;;;;;5052719;28;20025;-80
2022/01/22 05:06:29;;;;;;;17.00;5.90;;;;;;;;;;5050544;28;20039;-80
2022/01/22 05:08:56;;;;;;;13.77;5.22;;;;;;;;;;5050746;28;20044;-80
2022/01/22 05:11:24;;;;;;;10.52;4.72;;;;;;;;;;5048342;28;20035;-80
2022/01/22 05:13:49;;;;;;;10.98;6.40;;;;;;;;;;5053279;28;20060;-80
2022/01/22 05:16:16;;;;;;;8.63;4.88;;;;;;;;;;5050331;28;20043;-80
2022/01/22 05:18:53;;;;;;;14.93;5.45;;;;;;;;;;5053272;28;20035;-80
2022/01/22 05:21:20;;;;;;;16.45;5.75;;;;;;;;;;5048481;28;20129;-80
2022/01/22 05:23:47;;;;;;;7.45;4.68;;;;;;;;;;5053756;28;20024;-80
2022/01/22 05:26:42;;;;;;;16.63;5.60;;;;;;;;;;5051841;28;20106;-80
2022/01/22 05:39:21;;;;;;;10.05;4.63;;;;;;;;;;5048377;28;21958;-80
2022/01/22 05:41:47;;;;;;;10.38;4.57;;;;;;;;;;5055477;28;20469;-79
2022/01/22 05:44:13;;;;;;;11.57;4.95;;;;;;;;;;5043248;28;20040;-80
2022/01/22 05:46:39;;;;;;;8.18;4.22;;;;;;;;;;5050997;28;20054;-80
2022/01/22 05:49:06;;;;;;;8.40;4.60;;;;;;;;;;5051333;28;20032;-80
2022/01/22 05:51:33;;;;;;;8.55;3.80;;;;;;;;;;5049174;28;20044;-80
2022/01/22 06:01:56;;;;;;;8.38;4.20;;;;;;;;;;5050834;28;20094;-80
2022/01/22 06:04:22;;;;;;;8.55;3.97;;;;;;;;;;5053188;28;20040;-80
2022/01/22 06:06:48;;;;;;;8.18;4.57;;;;;;;;;;5048631;28;20028;-80
2022/01/22 06:09:14;;;;;;;9.27;4.22;;;;;;;;;;5053393;28;20119;-80
2022/01/22 06:14:32;;;;;;;12.20;4.93;;;;;;;;;;5033269;28;20090;-80
2022/01/22 06:16:59;;;;;;;9.95;5.18;;;;;;;;;;5047741;28;20734;-80
2022/01/22 06:19:24;;;;;;;17.70;4.65;;;;;;;;;;5057477;28;20032;-80
2022/01/22 06:21:51;;;;;;;11.10;5.55;;;;;;;;;;5056843;28;20044;-81
2022/01/22 06:24:18;;;;;;;7.50;4.00;;;;;;;;;;5062091;28;20029;-80
2022/01/22 06:26:44;;;;;;;9.73;4.20;;;;;;;;;;5055846;28;20032;-81
2022/01/22 06:29:10;;;;;;;7.07;3.65;;;;;;;;;;5056733;28;20450;-80
2022/01/22 06:31:36;;;;;;;8.65;4.68;;;;;;;;;;5050904;28;20051;-81
2022/01/22 06:34:02;;;;;;;7.15;3.60;;;;;;;;;;5058059;28;20021;-80
2022/01/22 06:36:28;;;;;;;7.68;3.50;;;;;;;;;;5055148;28;20041;-80
2022/01/22 06:39:10;;;;;;;9.27;5.30;;;;;;;;;;5054711;28;20093;-79
2022/01/22 06:41:45;;;;;;;9.15;4.93;;;;;;;;;;5056290;28;20088;-79
2022/01/22 06:44:12;;;;;;;9.48;4.35;;;;;;;;;;5052339;28;20036;-80
2022/01/22 06:46:38;;;;;;;7.35;3.30;;;;;;;;;;5048274;28;20051;-80
2022/01/22 06:49:04;;;;;;;7.20;4.43;;;;;;;;;;5050560;28;20048;-83
2022/01/22 06:51:30;;;;;;;11.88;5.13;;;;;;;;;;5027670;28;20029;-81
2022/01/22 06:53:56;;;;;;;12.55;5.43;;;;;;;;;;5048537;28;20395;-79
2022/01/22 06:56:24;;;;;;;15.07;6.30;;;;;;;;;;5051648;28;20028;-80
2022/01/22 06:58:50;;;;;;;8.27;4.57;;;;;;;;;;5046026;28;20029;-79
2022/01/22 07:01:16;;;;;;;8.70;4.72;;;;;;;;;;5051479;28;20545;-80
2022/01/22 07:03:42;;;;;;;11.30;5.80;;;;;;;;;;5048762;28;20124;-78
2022/01/22 07:06:08;;;;;;;9.23;5.20;;;;;;;;;;5045452;28;20032;-79
2022/01/22 07:08:34;;;;;;;9.95;4.85;;;;;;;;;;5050069;28;20044;-77
2022/01/22 07:11:00;;;;;;;9.00;5.18;;;;;;;;;;5048352;28;20028;-80
2022/01/22 07:13:26;;;;;;;9.35;5.65;;;;;;;;;;5046163;28;20503;-78
2022/01/22 07:15:52;;;;;;;8.93;4.35;;;;;;;;;;5050563;28;20029;-79
2022/01/22 07:18:18;;;;;;;10.55;5.75;;;;;;;;;;5053206;28;20059;-78
2022/01/22 07:20:45;;;;;;;10.30;5.13;;;;;;;;;;5053188;28;21424;-79
2022/01/22 07:23:31;;;;;;;15.10;6.40;;;;;;;;;;5048621;28;20108;-79
2022/01/22 07:25:57;;;;;;;13.27;5.70;;;;;;;;;;5048610;28;20048;-78
2022/01/22 07:28:23;;;;;;;13.00;5.10;;;;;;;;;;5047456;28;20046;-78
2022/01/22 07:30:49;;;;;;;9.38;4.38;;;;;;;;;;5048670;28;20491;-79
2022/01/22 07:33:17;;;;;;;9.35;4.07;;;;;;;;;;5049246;28;20021;-80
2022/01/22 07:35:43;;;;;;;9.27;4.85;;;;;;;;;;5055698;28;20115;-79
2022/01/22 07:38:10;;;;;;;8.18;4.22;;;;;;;;;;5043823;28;20580;-78
2022/01/22 07:40:36;;;;;;;11.18;4.57;;;;;;;;;;5045678;28;20059;-78
2022/01/22 07:43:02;;;;;;;8.07;4.68;;;;;;;;;;5050128;28;20048;-79
2022/01/22 07:45:28;;;;;;;12.77;5.72;;;;;;;;;;5055703;28;20040;-78
2022/01/22 07:47:54;;;;;;;8.73;4.80;;;;;;;;;;5054991;28;20032;-79
2022/01/22 07:50:20;;;;;;;8.93;4.88;;;;;;;;;;5054785;28;20077;-80
2022/01/22 07:52:46;;;;;;;13.80;5.90;;;;;;;;;;5054833;28;20044;-79
2022/01/22 07:55:12;;;;;;;8.85;5.90;;;;;;;;;;5052620;28;20039;-79
2022/01/22 07:57:38;;;;;;;10.25;6.07;;;;;;;;;;5053875;28;22333;-78
2022/01/22 08:00:06;;;;;;;12.38;5.65;;;;;;;;;;5054698;28;20132;-79
2022/01/22 08:02:32;;;;;;;10.77;5.30;;;;;;;;;;5059729;28;20044;-79
2022/01/22 08:04:57;;;;;;;10.60;5.28;;;;;;;;;;5062093;28;20032;-79
2022/01/22 08:07:23;;;;;;;15.45;5.60;;;;;;;;;;5057207;28;20025;-78
2022/01/22 08:09:50;;;;;;;13.57;4.65;;;;;;;;;;5055545;28;20036;-79
2022/01/22 08:12:17;;;;;;;14.05;6.18;;;;;;;;;;5055371;28;20024;-78
2022/01/22 08:14:43;;;;;;;11.20;5.07;;;;;;;;;;5053785;28;20555;-78
2022/01/22 08:17:09;;;;;;;13.73;5.13;;;;;;;;;;5057491;28;20102;-80
2022/01/22 08:19:35;;;;;;;10.38;4.82;;;;;;;;;;5058540;28;20108;-80
2022/01/22 08:22:01;;;;;;;28.95;7.07;;;;;;;;;;5057705;28;22337;-81
2022/01/22 08:24:27;;;;;;;17.73;6.90;;;;;;;;;;5059084;28;20033;-80
2022/01/22 08:27:11;;;;;;;16.63;6.30;;;;;;;;;;5067326;28;20044;-80
2022/01/22 08:29:37;;;;;;;13.32;5.60;;;;;;;;;;5064372;28;20072;-79
2022/01/22 08:32:10;;;;;;;15.15;5.25;;;;;;;;;;5053391;28;20076;-79
2022/01/22 08:37:21;;;;;;;14.05;5.65;;;;;;;;;;5050266;28;20675;-80
2022/01/22 08:39:47;;;;;;;9.82;4.57;;;;;;;;;;5050573;28;20029;-80
2022/01/22 08:42:13;;;;;;;10.82;4.82;;;;;;;;;;5051314;28;20033;-79
2022/01/22 08:44:42;;;;;;;14.88;6.10;;;;;;;;;;5058031;28;20025;-80
2022/01/22 08:47:08;;;;;;;11.48;5.45;;;;;;;;;;5051979;28;20037;-79
2022/01/22 08:49:34;;;;;;;12.85;5.20;;;;;;;;;;5048171;28;20044;-79
2022/01/22 08:52:01;;;;;;;12.32;5.63;;;;;;;;;;5041340;28;20032;-79
2022/01/22 08:54:27;;;;;;;11.35;5.70;;;;;;;;;;5051735;28;20075;-80
2022/01/22 08:56:54;;;;;;;13.30;6.50;;;;;;;;;;5051032;28;20025;-80
2022/01/22 08:59:20;;;;;;;12.80;6.65;;;;;;;;;;5053714;28;20696;-80
2022/01/22 09:01:48;;;;;;;17.75;5.55;;;;;;;;;;5050014;28;20119;-81
2022/01/22 09:04:15;;;;;;;12.63;5.82;;;;;;;;;;5047362;28;20028;-80
2022/01/22 09:06:41;;;;;;;22.40;5.82;;;;;;;;;;5057296;28;20626;-79
2022/01/22 09:09:11;;;;;;;10.85;5.95;;;;;;;;;;5055904;28;20044;-78
2022/01/22 09:11:38;;;;;;;17.58;8.40;;;;;;;;;;5059978;28;20510;-78
2022/01/22 09:14:05;;;;;;;11.50;5.38;;;;;;;;;;5052401;28;20028;-79
2022/01/22 09:16:31;;;;;;;12.07;5.18;;;;;;;;;;5048045;28;20029;-78
2022/01/22 09:19:05;;;;;;;14.00;5.85;;;;;;;;;;5053722;28;20031;-79
2022/01/22 09:21:31;;;;;;;9.43;4.43;;;;;;;;;;5055048;28;20029;-79
2022/01/22 09:23:57;;;;;;;11.85;5.57;;;;;;;;;;5061418;28;20032;-79
2022/01/22 09:26:23;;;;;;;14.30;6.25;;;;;;;;;;5035990;28;20124;-80
2022/01/22 09:28:50;;;;;;;10.82;5.78;;;;;;;;;;5040327;28;20498;-79
2022/01/22 09:31:15;;;;;;;12.48;6.47;;;;;;;;;;5050793;28;20036;-79
2022/01/22 09:33:43;;;;;;;10.13;5.07;;;;;;;;;;5053939;28;20500;-79
2022/01/22 09:36:09;;;;;;;9.82;5.13;;;;;;;;;;5050543;28;20464;-77
2022/01/22 09:38:35;;;;;;;15.77;6.03;;;;;;;;;;5041796;28;20117;-79
2022/01/22 09:41:01;;;;;;;18.05;6.47;;;;;;;;;;5052059;28;20114;-81
2022/01/22 09:43:27;;;;;;;9.50;5.22;;;;;;;;;;5044610;28;20036;-80
2022/01/22 09:45:53;;;;;;;11.88;5.03;;;;;;;;;;5045654;28;20040;-80
2022/01/22 09:48:19;;;;;;;12.80;5.25;;;;;;;;;;5037630;28;22275;-78
2022/01/22 09:50:45;;;;;;;8.60;5.05;;;;;;;;;;5054433;28;20027;-78
2022/01/22 09:53:11;;;;;;;12.48;4.95;;;;;;;;;;5051599;28;21227;-78
2022/01/22 09:55:37;;;;;;;14.40;5.90;;;;;;;;;;5055078;28;20041;-79
2022/01/22 09:58:03;;;;;;;16.67;7.15;;;;;;;;;;5042128;28;20029;-78
2022/01/22 10:00:29;;;;;;;14.02;5.32;;;;;;;;;;5047796;28;20843;-77
2022/01/22 10:02:56;;;;;;;13.52;5.20;;;;;;;;;;5050173;28;20027;-78
2022/01/22 10:05:36;;;;;;;7.07;4.13;;;;;;;;;;5044335;28;20035;-78
2022/01/22 10:08:21;;;;;;;7.88;5.07;;;;;;;;;;5034777;28;20040;-78
2022/01/22 10:10:48;;;;;;;9.10;4.15;;;;;;;;;;5053784;28;20087;-77
2022/01/22 10:13:14;;;;;;;12.85;5.90;;;;;;;;;;5044892;28;20032;-78
2022/01/22 10:15:40;;;;;;;6.93;3.50;;;;;;;;;;5042510;28;20032;-78
2022/01/22 10:18:07;;;;;;;8.73;4.95;;;;;;;;;;5053209;28;20029;-76
2022/01/22 10:20:38;;;;;;;17.23;4.85;;;;;;;;;;5052015;28;20033;-78
2022/01/22 10:23:22;;;;;;;8.30;4.40;;;;;;;;;;5051182;28;20051;-77
2022/01/22 10:25:52;;;;;;;;;;;;;;;;;;5048089;28;20972;-77
2022/01/22 10:28:24;;;;;;;8.18;4.00;;;;;;;;;;5038624;28;19920;-76
2022/01/22 10:30:54;;;;;;;10.77;4.57;;;;;;;;;;5050152;28;20051;-78
2022/01/22 10:33:33;;;;;;;14.63;5.40;;;;;;;;;;5052750;28;20153;-77
2022/01/22 10:36:09;;;;;;;11.73;4.85;;;;;;;;;;5049336;28;20029;-79
2022/01/22 10:38:43;;;;;;;6.40;3.67;;;;;;;;;;5042900;28;20107;-78
2022/01/22 10:41:09;;;;;;;9.93;3.88;;;;;;;;;;5054360;28;20067;-78
2022/01/22 10:43:42;;;;;;;7.85;4.45;;;;;;;;;;5052064;28;20043;-78
2022/01/22 10:48:53;;;;;;;13.68;4.32;;;;;;;;;;5041792;28;20040;-78
2022/01/22 10:51:20;;;;;;;10.00;3.58;;;;;;;;;;5053584;28;20680;-78
2022/01/22 10:53:46;;;;;;;8.77;4.68;;;;;;;;;;5045479;28;20020;-78
2022/01/22 10:56:14;;;;;;;9.25;4.68;;;;;;;;;;5047852;28;20043;-78
2022/01/22 10:58:54;;;;;;;12.40;5.68;;;;;;;;;;5044929;28;20079;-77
2022/01/22 11:01:20;;;;;;;9.38;3.88;;;;;;;;;;5046796;28;20097;-78
2022/01/22 11:03:47;;;;;;;6.32;3.85;;;;;;;;;;5052566;28;20476;-78
2022/01/22 11:06:26;;;;;;;11.02;5.45;;;;;;;;;;5054006;28;20511;-79
2022/01/22 11:08:52;;;;;;;9.00;4.45;;;;;;;;;;5052487;28;21274;-79
2022/01/22 11:11:18;;;;;;;9.77;4.88;;;;;;;;;;5052516;28;20021;-79
2022/01/22 11:13:44;;;;;;;12.02;3.97;;;;;;;;;;5055443;28;20827;-78
2022/01/22 11:16:10;;;;;;;15.43;4.80;;;;;;;;;;5048826;28;20059;-77
2022/01/22 11:18:38;;;;;;;9.85;4.70;;;;;;;;;;5046738;28;20097;-78
2022/01/22 11:21:05;;;;;;;7.03;4.13;;;;;;;;;;5046730;28;20029;-78
2022/01/22 11:23:33;;;;;;;8.15;4.53;;;4.00;99.90;;;;;;5038466;28;20025;-78
2022/01/22 11:25:59;;;;;;;12.93;4.88;;;;;;;;;;5053760;28;20229;-79
2022/01/22 11:28:26;;;;;;;11.55;4.55;;;;;;;;;;5049922;28;20041;-79
2022/01/22 11:30:54;;;;;;;10.50;3.53;;;;;;;;;;5042409;28;20033;-78
2022/01/22 11:33:22;;;;;;;14.50;5.63;;;;;;;;;;5047047;28;20112;-78
2022/01/22 11:36:07;;;;;;;12.20;4.97;;;;;;;;;;5056086;28;20040;-79
2022/01/22 11:38:38;;;;;;;7.53;4.30;;;;;;;;;;5057295;28;20029;-77
2022/01/22 11:41:05;;;;;;;11.15;4.40;;;;;;;;;;5050548;28;20028;-79
2022/01/22 11:44:12;;;;;;;7.50;4.00;;;;;;;;;;5053001;28;20135;-78
2022/01/22 11:46:44;;;;;;;7.45;3.85;;;;;;;;;;5045589;28;20068;-77
2022/01/22 11:49:18;;;;;;;14.50;5.05;;;;;;;;;;5047343;28;20052;-79
2022/01/22 11:51:48;;;;;;;7.43;4.05;;;;;;;;;;5053353;28;21400;-77
2022/01/22 11:54:15;;;;;;;8.27;4.72;;;;;;;;;;5044703;28;20040;-79
2022/01/22 11:56:43;;;;;;;10.55;4.30;;;;;;;;;;5042139;28;20025;-79
2022/01/22 11:59:15;;;;;;;14.73;4.57;;;;;;;;;;5051715;28;20044;-78
2022/01/22 12:01:51;;;;;;;8.18;3.38;;;;;;;;;;5043960;28;20035;-80
2022/01/22 12:04:21;;;;;;;15.70;5.03;;;;;;;;;;5041807;28;20049;-78
2022/01/22 12:07:02;;;;;;;10.40;5.03;;;;;;;;;;5039303;28;20388;-78
2022/01/22 12:09:33;;;;;;;8.95;5.20;;;;;;;;;;5047839;28;20056;-78
2022/01/22 12:15:04;;;;;;;13.65;4.63;;;;;;;;;;5042102;28;20048;-77
2022/01/22 12:17:56;;;;;;;10.07;4.85;;;;;;;;;;5052565;28;20032;-77
2022/01/22 12:23:03;;;;;;;11.00;5.25;;;;;;;;;;5050452;28;20047;-77
2022/01/22 12:25:28;;;;;;;5.78;3.38;;;;;;;;;;5046625;28;23048;-77
2022/01/22 12:27:55;;;;;;;10.65;5.80;;;;;;;;;;5029124;28;20021;-77
2022/01/22 12:30:35;;;;;;;9.85;4.38;;;;;;;;;;5023846;28;20048;-77
2022/01/22 12:33:01;;;;;;;9.63;4.43;;;;;;;;;;5030866;28;20029;-77
2022/01/22 12:35:35;;;;;;;6.40;2.90;;;;;;;;;;5034840;28;20408;-78
2022/01/22 12:38:16;;;;;;;12.43;5.55;;;;;;;;;;5035617;28;20127;-78
2022/01/22 12:40:43;;;;;;;7.13;3.97;;;;;;;;;;5034383;28;20036;-77
2022/01/22 12:43:13;;;;;;;10.55;4.15;;;;;;;;;;5050435;28;20579;-77
2022/01/22 12:45:41;;;;;;;10.55;5.28;;;;;;;;;;5049443;28;20024;-77
2022/01/22 12:48:07;;;;;;;11.23;4.85;;;;;;;;;;5030154;28;20284;-78
2022/01/22 12:50:36;;;;;;;7.78;4.68;;;;;;;;;;5031414;28;20105;-78
2022/01/22 12:53:08;;;;;;;10.07;4.65;;;;;;;;;;5034211;28;20020;-79
2022/01/22 12:56:47;;;;;;;10.30;4.03;;;;;;;;;;5044885;28;20043;-78
2022/01/22 12:58:27;;;;;;;8.77;4.30;;;;;;;;;;5054443;28;20059;-78
2022/01/22 13:01:07;;;;;;;9.80;4.80;;;;;;;;;;5045283;28;20044;-78
2022/01/22 13:03:37;;;;;;;8.57;4.07;;;;;;;;;;5054223;28;20037;-79
2022/01/22 13:06:04;;;;;;;15.00;5.93;;;;;;;;;;5054646;28;20584;-78
2022/01/22 13:08:31;;;;;;;11.50;5.05;;;;;;;;;;5062638;28;20041;-78
2022/01/22 13:10:59;;;;;;;8.10;5.40;;;;;;;;;;5057525;28;20344;-79
2022/01/22 13:13:26;;;;;;;10.70;5.53;;;;;;;;;;5069455;28;20123;-79
2022/01/22 13:16:13;;;;;;;11.48;5.05;;;;;;;;;;5057246;28;20111;-78
2022/01/22 13:18:50;;;;;;;13.23;4.97;;;;;;;;;;5056443;28;20059;-78
2022/01/22 13:21:17;;;;;;;9.50;3.70;;;;;;;;;;5056972;28;20126;-79
2022/01/22 13:23:46;;;;;;;11.15;4.63;;;;;;;;;;5060767;28;20571;-79
2022/01/22 13:26:15;;;;;;;9.90;3.95;;;;;;;;;;5054518;28;20055;-79
2022/01/22 13:28:43;;;;;;;11.98;6.13;;;;;;;;;;5053931;28;20040;-78
2022/01/22 13:31:17;;;;;;;16.67;5.75;;;;;;;;;;5058240;28;20402;-79
2022/01/22 13:33:59;;;;;;;9.73;4.90;;;;;;;;;;5055530;28;20037;-77
2022/01/22 13:37:28;;;;;;;10.52;4.93;;;;;;;;;;5048969;28;20091;-78
2022/01/22 13:49:55;;;;;;;14.50;6.00;;;;;;;;;;5045820;28;20063;-79
2022/01/22 13:52:27;;;;;;;9.60;4.65;;;;;;;;;;5048833;28;20153;-79
2022/01/22 13:54:58;;;;;;;11.63;5.35;;;;;;;;;;5041514;28;20086;-84
2022/01/22 13:57:25;;;;;;;9.32;5.95;;;;;;;;;;5044999;28;20104;-79
2022/01/22 13:59:53;;;;;;;19.15;6.32;;;;;;;;;;5051858;28;20156;-79
2022/01/22 14:05:03;;;;;;;12.82;5.55;;;;;;;;;;5047589;28;20036;-76
2022/01/22 14:07:36;;;;;;;10.75;4.50;;;;;;;;;;5047959;28;22299;-78
2022/01/22 14:10:09;;;;;;;10.13;5.33;;;;;;;;;;5043416;28;20109;-78
2022/01/22 14:12:44;;;;;;;4.78;3.13;;;;;;;;;;5044444;28;20033;-78
2022/01/22 14:15:13;;;;;;;7.70;3.95;;;;;;;;;;5046389;28;20574;-79
2022/01/22 14:17:54;;;;;;;6.30;3.63;;;;;;;;;;5048048;28;20621;-79
2022/01/22 14:20:27;;;;;;;9.60;4.75;;;;;;;;;;5048748;28;20040;-78
2022/01/22 14:22:53;;;;;;;9.18;5.32;;;;;;;;;;5051313;28;20025;-79
2022/01/22 14:25:19;;;;;;;17.15;4.68;;;;;;;;;;5052387;28;21811;-79
2022/01/22 14:28:14;;;;;;;12.48;5.43;;;;;;;;;;5049118;28;20043;-79
2022/01/22 14:30:42;;;;;;;7.82;4.10;;;;;;;;;;5038221;28;20087;-81
2022/01/22 14:33:09;;;;;;;13.90;5.95;;;;;;;;;;5047048;28;20032;-78
2022/01/22 14:35:35;;;;;;;14.73;5.88;;;;;;;;;;5053232;28;20580;-78
2022/01/22 14:38:20;;;;;;;13.52;4.68;;;;;;;;;;5045571;28;20037;-78
2022/01/22 14:44:04;;;;;;;15.02;5.93;;;;;;;;;;5048752;28;20124;-79
2022/01/22 14:47:05;;;;;;;19.15;6.53;;;;;;;;;;5055771;28;20043;-79
2022/01/22 14:49:45;;;;;;;16.80;6.10;;;4.50;99.90;;;;;;5012292;28;20037;-79
2022/01/22 14:52:12;;;;;;;16.15;6.50;;;;;;;;;;5048057;28;20060;-79
2022/01/22 14:54:44;;;;;;;13.25;6.45;;;;;;;;;;5054946;28;20139;-79
2022/01/22 14:57:11;;;;;;;21.20;7.38;;;;;;;;;;5055991;28;20411;-78
2022/01/22 14:59:38;;;;;;;11.20;6.45;;;;;;;;;;5053757;28;20027;-79
2022/01/22 15:02:04;;;;;;;15.15;6.68;;;;;;;;;;5044452;28;20771;-78
2022/01/22 15:04:30;;;;;;;21.40;8.85;;;;;;;;;;5052610;28;20722;-78
2022/01/22 15:06:58;;;;;;;27.10;10.02;;;;;;;;;;5050430;28;20032;-79
2022/01/22 15:09:24;;;;;;;19.90;8.35;;;;;;;;;;5047741;28;20037;-79
2022/01/22 15:11:50;;;;;;;17.30;7.95;;;;;;;;;;5052475;28;20436;-79
2022/01/22 15:14:16;;;;;;;14.80;6.80;;;;;;;;;;5054669;28;20512;-79
2022/01/22 15:16:51;;;;;;;15.40;5.07;;;;;;;;;;5051107;28;20032;-79
2022/01/22 15:19:20;;;;;;;14.07;6.95;;;;;;;;;;5051903;28;20032;-78
2022/01/22 15:21:49;;;;;;;11.43;5.43;;;;;;;;;;5050030;28;20036;-79
2022/01/22 15:24:15;;;;;;;18.92;6.80;;;;;;;;;;5052034;28;20043;-79
2022/01/22 15:26:41;;;;;;;28.25;11.20;;;;;;;;;;5047495;28;20021;-79
2022/01/22 15:29:09;;;;;;;15.43;6.20;;;;;;;;;;5052261;28;20040;-78
2022/01/22 15:31:39;;;;;;;18.13;7.28;;;;;;;;;;5049077;28;20032;-78
2022/01/22 15:34:15;;;;;;;45.65;17.80;;;;;;;;;;5052274;28;20055;-79
2022/01/22 15:36:44;;;;;;;57.65;19.13;;;;;;;;;;5052741;28;20083;-78
2022/01/22 15:39:11;;;;;;;37.05;14.60;;;;;;;;;;5051197;28;20024;-77
2022/01/22 15:41:37;;;;;;;31.42;10.82;;;;;;;;;;5047647;28;20034;-78
2022/01/22 15:44:07;;;;;;;23.73;9.52;;;;;;;;;;5056013;28;20041;-78
2022/01/22 15:46:34;;;;;;;13.18;5.65;;;;;;;;;;5048463;28;20025;-81
2022/01/22 15:49:00;;;;;;;12.13;5.90;;;;;;;;;;5051598;28;20117;-78
2022/01/22 15:51:27;;;;;;;11.35;6.20;;;;;;;;;;5049745;28;20028;-78
2022/01/22 15:53:53;;;;;;;11.55;5.90;;;;;;;;;;5055083;28;20037;-80
2022/01/22 15:56:19;;;;;;;9.60;4.65;;;;;;;;;;5054790;28;20155;-80
2022/01/22 15:58:45;;;;;;;15.68;6.40;;;;;;;;;;5052253;28;20079;-79
2022/01/22 16:01:13;;;;;;;11.50;4.68;;;;;;;;;;5050095;28;20078;-78
2022/01/22 16:03:43;;;;;;;12.05;5.13;;;;;;;;;;5051471;28;20078;-79
2022/01/22 16:06:18;;;;;;;10.27;5.50;;;;;;;;;;5060271;28;20485;-79
2022/01/22 16:08:45;;;;;;;12.65;4.63;;;;;;;;;;5056554;28;20099;-79
2022/01/22 16:11:11;;;;;;;10.73;5.43;;;;;;;;;;5058931;28;20076;-79
2022/01/22 16:13:37;;;;;;;12.40;5.57;;;;;;;;;;5050100;28;21620;-79
2022/01/22 16:16:03;;;;;;;11.38;5.40;;;;;;;;;;5055079;28;20125;-79
2022/01/22 16:18:29;;;;;;;8.55;4.53;;;;;;;;;;5058563;28;20491;-79
2022/01/22 16:20:55;;;;;;;16.42;5.68;;;;;;;;;;5053330;28;20028;-79
2022/01/22 16:23:21;;;;;;;13.63;6.63;;;;;;;;;;5061015;28;20140;-79
2022/01/22 16:25:47;;;;;;;15.40;6.80;;;;;;;;;;5053503;28;20028;-80
2022/01/22 16:28:13;;;;;;;9.43;4.75;;;;;;;;;;5058464;28;20028;-79
2022/01/22 16:30:39;;;;;;;9.85;5.13;;;;;;;;;;5054254;28;20040;-80
2022/01/22 16:33:05;;;;;;;9.00;5.63;;;;;;;;;;5060431;28;20067;-79
2022/01/22 16:35:32;;;;;;;14.32;5.78;;;;;;;;;;5057537;28;23460;-78
2022/01/22 16:37:58;;;;;;;16.02;7.63;;;;;;;;;;5050435;28;20028;-78
2022/01/22 16:40:25;;;;;;;10.60;5.30;;;;;;;;;;5048094;28;20056;-78